sensor_id;sensor_type;location;lat;lon;timestamp;temperature;humidity
2220;DHT22;1116;51.502;7.414;2023-12-20T00:02:29;9.30;99.90
2220;DHT22;1116;51.502;7.414;2023-12-20T00:05:02;9.30;99.90
2220;DHT22;1116;51.502;7.414;2023-12-20T00:07:33;9.20;99.90
2220;DHT22;1116;51.502;7.414;2023-12-20T00:10:04;9.30;99.90
2220;DHT22;1116;51.502;7.414;2023-12-20T00:12:35;9.30;99.90
2220;DHT22;1116;51.502;7.414;2023-12-20T00:15:06;9.30;99.90
2220;DHT22;1116;51.502;7.414;2023-12-20T00:17:36;9.30;99.90
2220;DHT22;1116;51.502;7.414;2023-12-20T00:20:10;9.20;99.90
2220;DHT22;1116;51.502;7.414;2023-12-20T00:22:41;9.30;99.90
2220;DHT22;1116;51.502;7.414;2023-12-20T00:25:11;9.20;99.90
2220;DHT22;1116;51.502;7.414;2023-12-20T00:27:41;9.20;99.90
2220;DHT22;1116;51.502;7.414;2023-12-20T00:30:13;9.20;99.90
2220;DHT22;1116;51.502;7.414;2023-12-20T00:32:43;9.10;99.90
2220;DHT22;1116;51.502;7.414;2023-12-20T00:35:16;9.00;99.90
2220;DHT22;1116;51.502;7.414;2023-12-20T00:37:46;9.00;99.90
2220;DHT22;1116;51.502;7.414;2023-12-20T00:40:17;9.00;99.90
2220;DHT22;1116;51.502;7.414;2023-12-20T00:42:47;9.00;99.90
2220;DHT22;1116;51.502;7.414;2023-12-20T00:45:18;8.90;99.90
2220;DHT22;1116;51.502;7.414;2023-12-20T00:47:48;8.70;99.90
2220;DHT22;1116;51.502;7.414;2023-12-20T00:50:21;8.60;99.90
2220;DHT22;1116;51.502;7.414;2023-12-20T00:52:55;8.60;99.90
2220;DHT22;1116;51.502;7.414;2023-12-20T00:55:25;8.50;99.90
2220;DHT22;1116;51.502;7.414;2023-12-20T00:57:56;8.50;99.90
2220;DHT22;1116;51.502;7.414;2023-12-20T01:00:26;8.50;99.90
2220;DHT22;1116;51.502;7.414;2023-12-20T01:02:56;8.50;99.90
2220;DHT22;1116;51.502;7.414;2023-12-20T01:05:29;8.40;99.90
2220;DHT22;1116;51.502;7.414;2023-12-20T01:07:59;8.40;99.90
2220;DHT22;1116;51.502;7.414;2023-12-20T01:10:30;8.40;99.90
2220;DHT22;1116;51.502;7.414;2023-12-20T01:13:00;8.40;99.90
2220;DHT22;1116;51.502;7.414;2023-12-20T01:15:30;8.40;99.90
2220;DHT22;1116;51.502;7.414;2023-12-20T01:18:00;8.40;99.90
2220;DHT22;1116;51.502;7.414;2023-12-20T01:20:33;8.40;99.90
2220;DHT22;1116;51.502;7.414;2023-12-20T01:23:03;8.50;99.90
2220;DHT22;1116;51.502;7.414;2023-12-20T01:25:33;8.50;99.90
2220;DHT22;1116;51.502;7.414;2023-12-20T01:28:04;8.50;99.90
2220;DHT22;1116;51.502;7.414;2023-12-20T01:30:35;8.40;99.90
2220;DHT22;1116;51.502;7.414;2023-12-20T01:33:05;8.40;99.90
2220;DHT22;1116;51.502;7.414;2023-12-20T01:35:38;8.50;99.90
2220;DHT22;1116;51.502;7.414;2023-12-20T01:38:09;8.40;99.90
2220;DHT22;1116;51.502;7.414;2023-12-20T01:40:39;8.30;99.90
2220;DHT22;1116;51.502;7.414;2023-12-20T01:43:09;8.40;99.90
2220;DHT22;1116;51.502;7.414;2023-12-20T01:45:40;8.50;99.90
2220;DHT22;1116;51.502;7.414;2023-12-20T01:48:10;8.50;99.90
2220;DHT22;1116;51.502;7.414;2023-12-20T01:50:44;8.40;99.90
2220;DHT22;1116;51.502;7.414;2023-12-20T01:53:15;8.40;99.90
2220;DHT22;1116;51.502;7.414;2023-12-20T01:55:48;8.40;99.90
2220;DHT22;1116;51.502;7.414;2023-12-20T01:58:20;8.40;99.90
2220;DHT22;1116;51.502;7.414;2023-12-20T02:00:51;8.40;99.90
2220;DHT22;1116;51.502;7.414;2023-12-20T02:03:22;8.30;99.90
2220;DHT22;1116;51.502;7.414;2023-12-20T02:05:55;8.40;99.90
2220;DHT22;1116;51.502;7.414;2023-12-20T02:08:25;8.30;99.90
2220;DHT22;1116;51.502;7.414;2023-12-20T02:10:56;8.30;99.90
2220;DHT22;1116;51.502;7.414;2023-12-20T02:13:26;8.30;99.90
2220;DHT22;1116;51.502;7.414;2023-12-20T02:15:56;8.30;99.90
2220;DHT22;1116;51.502;7.414;2023-12-20T02:18:26;8.30;99.90
2220;DHT22;1116;51.502;7.414;2023-12-20T02:20:59;8.30;99.90
2220;DHT22;1116;51.502;7.414;2023-12-20T02:23:32;8.20;99.90
2220;DHT22;1116;51.502;7.414;2023-12-20T02:26:03;8.10;99.90
2220;DHT22;1116;51.502;7.414;2023-12-20T02:28:34;8.00;99.90
2220;DHT22;1116;51.502;7.414;2023-12-20T02:31:05;7.90;99.90
2220;DHT22;1116;51.502;7.414;2023-12-20T02:33:35;8.00;99.90
2220;DHT22;1116;51.502;7.414;2023-12-20T02:36:06;8.00;99.90
2220;DHT22;1116;51.502;7.414;2023-12-20T02:38:39;8.00;99.90
2220;DHT22;1116;51.502;7.414;2023-12-20T02:41:09;8.00;99.90
2220;DHT22;1116;51.502;7.414;2023-12-20T02:43:39;7.90;99.90
2220;DHT22;1116;51.502;7.414;2023-12-20T02:46:09;7.90;99.90
2220;DHT22;1116;51.502;7.414;2023-12-20T02:48:40;7.90;99.90
2220;DHT22;1116;51.502;7.414;2023-12-20T02:51:10;7.90;99.90
2220;DHT22;1116;51.502;7.414;2023-12-20T02:53:43;8.00;99.90
2220;DHT22;1116;51.502;7.414;2023-12-20T02:56:13;8.00;99.90
2220;DHT22;1116;51.502;7.414;2023-12-20T02:58:44;7.90;99.90
2220;DHT22;1116;51.502;7.414;2023-12-20T03:01:14;8.10;99.90
2220;DHT22;1116;51.502;7.414;2023-12-20T03:03:44;8.10;99.90
2220;DHT22;1116;51.502;7.414;2023-12-20T03:06:16;8.10;99.90
2220;DHT22;1116;51.502;7.414;2023-12-20T03:08:50;8.10;99.90
2220;DHT22;1116;51.502;7.414;2023-12-20T03:11:20;8.00;99.90
2220;DHT22;1116;51.502;7.414;2023-12-20T03:13:50;8.00;99.90
2220;DHT22;1116;51.502;7.414;2023-12-20T03:16:21;7.90;99.90
2220;DHT22;1116;51.502;7.414;2023-12-20T03:18:51;8.00;99.90
2220;DHT22;1116;51.502;7.414;2023-12-20T03:21:21;8.00;99.90
2220;DHT22;1116;51.502;7.414;2023-12-20T03:23:54;8.00;99.90
2220;DHT22;1116;51.502;7.414;2023-12-20T03:26:24;7.90;99.90
2220;DHT22;1116;51.502;7.414;2023-12-20T03:28:55;8.00;99.90
2220;DHT22;1116;51.502;7.414;2023-12-20T03:31:25;8.00;99.90
2220;DHT22;1116;51.502;7.414;2023-12-20T03:33:55;8.00;99.90
2220;DHT22;1116;51.502;7.414;2023-12-20T03:36:25;8.00;99.90
2220;DHT22;1116;51.502;7.414;2023-12-20T03:38:58;7.90;99.90
2220;DHT22;1116;51.502;7.414;2023-12-20T03:41:28;7.90;99.90
2220;DHT22;1116;51.502;7.414;2023-12-20T03:43:58;7.90;99.90
2220;DHT22;1116;51.502;7.414;2023-12-20T03:46:29;8.00;99.90
2220;DHT22;1116;51.502;7.414;2023-12-20T03:48:59;7.90;99.90
2220;DHT22;1116;51.502;7.414;2023-12-20T03:51:30;7.90;99.90
2220;DHT22;1116;51.502;7.414;2023-12-20T03:54:03;7.90;99.90
2220;DHT22;1116;51.502;7.414;2023-12-20T03:56:34;8.00;99.90
2220;DHT22;1116;51.502;7.414;2023-12-20T03:59:04;7.90;99.90
2220;DHT22;1116;51.502;7.414;2023-12-20T04:01:34;7.90;99.90
2220;DHT22;1116;51.502;7.414;2023-12-20T04:04:04;7.80;99.90
2220;DHT22;1116;51.502;7.414;2023-12-20T04:06:34;7.80;99.90
2220;DHT22;1116;51.502;7.414;2023-12-20T04:09:07;7.90;99.90
2220;DHT22;1116;51.502;7.414;2023-12-20T04:11:38;7.90;99.90
2220;DHT22;1116;51.502;7.414;2023-12-20T04:14:09;7.90;99.90
2220;DHT22;1116;51.502;7.414;2023-12-20T04:16:39;7.80;99.90
2220;DHT22;1116;51.502;7.414;2023-12-20T04:19:13;7.90;99.90
2220;DHT22;1116;51.502;7.414;2023-12-20T04:21:43;7.90;99.90
2220;DHT22;1116;51.502;7.414;2023-12-20T04:24:16;7.90;99.90
2220;DHT22;1116;51.502;7.414;2023-12-20T04:26:46;7.90;99.90
2220;DHT22;1116;51.502;7.414;2023-12-20T04:29:17;7.80;99.90
2220;DHT22;1116;51.502;7.414;2023-12-20T04:31:47;7.80;99.90
2220;DHT22;1116;51.502;7.414;2023-12-20T04:34:18;7.80;99.90
2220;DHT22;1116;51.502;7.414;2023-12-20T04:36:48;7.70;99.90
2220;DHT22;1116;51.502;7.414;2023-12-20T04:39:21;7.80;99.90
2220;DHT22;1116;51.502;7.414;2023-12-20T04:41:51;7.80;99.90
2220;DHT22;1116;51.502;7.414;2023-12-20T04:44:22;7.80;99.90
2220;DHT22;1116;51.502;7.414;2023-12-20T04:46:52;7.80;99.90
2220;DHT22;1116;51.502;7.414;2023-12-20T04:49:23;7.80;99.90
2220;DHT22;1116;51.502;7.414;2023-12-20T04:51:53;7.80;99.90
2220;DHT22;1116;51.502;7.414;2023-12-20T04:54:26;7.80;99.90
2220;DHT22;1116;51.502;7.414;2023-12-20T04:56:56;7.80;99.90
2220;DHT22;1116;51.502;7.414;2023-12-20T04:59:26;7.80;99.90
2220;DHT22;1116;51.502;7.414;2023-12-20T05:01:56;7.80;99.90
2220;DHT22;1116;51.502;7.414;2023-12-20T05:04:27;7.70;99.90
2220;DHT22;1116;51.502;7.414;2023-12-20T05:06:57;7.80;99.90
2220;DHT22;1116;51.502;7.414;2023-12-20T05:09:30;7.80;99.90
2220;DHT22;1116;51.502;7.414;2023-12-20T05:12:00;7.90;99.90
2220;DHT22;1116;51.502;7.414;2023-12-20T05:14:31;7.80;99.90
2220;DHT22;1116;51.502;7.414;2023-12-20T05:17:01;7.90;99.90
2220;DHT22;1116;51.502;7.414;2023-12-20T05:19:31;8.00;99.90
2220;DHT22;1116;51.502;7.414;2023-12-20T05:22:02;8.00;99.90
2220;DHT22;1116;51.502;7.414;2023-12-20T05:24:36;7.90;99.90
2220;DHT22;1116;51.502;7.414;2023-12-20T05:27:06;7.90;99.90
2220;DHT22;1116;51.502;7.414;2023-12-20T05:29:37;7.80;99.90
2220;DHT22;1116;51.502;7.414;2023-12-20T05:32:07;7.80;99.90
2220;DHT22;1116;51.502;7.414;2023-12-20T05:34:37;7.80;99.90
2220;DHT22;1116;51.502;7.414;2023-12-20T05:37:07;7.90;99.90
2220;DHT22;1116;51.502;7.414;2023-12-20T05:39:41;7.80;99.90
2220;DHT22;1116;51.502;7.414;2023-12-20T05:42:11;7.80;99.90
2220;DHT22;1116;51.502;7.414;2023-12-20T05:44:41;7.80;99.90
2220;DHT22;1116;51.502;7.414;2023-12-20T05:47:11;7.80;99.90
2220;DHT22;1116;51.502;7.414;2023-12-20T05:49:42;7.80;99.90
2220;DHT22;1116;51.502;7.414;2023-12-20T05:52:13;7.70;99.90
2220;DHT22;1116;51.502;7.414;2023-12-20T05:54:46;7.70;99.90
2220;DHT22;1116;51.502;7.414;2023-12-20T05:57:16;7.70;99.90
2220;DHT22;1116;51.502;7.414;2023-12-20T05:59:46;7.60;99.90
2220;DHT22;1116;51.502;7.414;2023-12-20T06:02:17;7.60;99.90
2220;DHT22;1116;51.502;7.414;2023-12-20T06:04:47;7.60;99.90
2220;DHT22;1116;51.502;7.414;2023-12-20T06:07:17;7.70;99.90
2220;DHT22;1116;51.502;7.414;2023-12-20T06:09:50;7.60;99.90
2220;DHT22;1116;51.502;7.414;2023-12-20T06:12:21;7.70;99.90
2220;DHT22;1116;51.502;7.414;2023-12-20T06:14:53;7.80;99.90
2220;DHT22;1116;51.502;7.414;2023-12-20T06:17:24;7.90;99.90
2220;DHT22;1116;51.502;7.414;2023-12-20T06:19:57;7.90;99.90
2220;DHT22;1116;51.502;7.414;2023-12-20T06:22:27;7.90;99.90
2220;DHT22;1116;51.502;7.414;2023-12-20T06:25:00;7.90;99.90
2220;DHT22;1116;51.502;7.414;2023-12-20T06:27:31;7.90;99.90
2220;DHT22;1116;51.502;7.414;2023-12-20T06:30:01;7.90;99.90
2220;DHT22;1116;51.502;7.414;2023-12-20T06:32:31;7.90;99.90
2220;DHT22;1116;51.502;7.414;2023-12-20T06:35:01;7.80;99.90
2220;DHT22;1116;51.502;7.414;2023-12-20T06:37:32;7.90;99.90
2220;DHT22;1116;51.502;7.414;2023-12-20T06:40:06;7.90;99.90
2220;DHT22;1116;51.502;7.414;2023-12-20T06:42:44;7.90;99.60
2220;DHT22;1116;51.502;7.414;2023-12-20T06:45:31;7.90;98.80
2220;DHT22;1116;51.502;7.414;2023-12-20T06:48:01;8.00;98.50
2220;DHT22;1116;51.502;7.414;2023-12-20T06:50:32;8.00;97.70
2220;DHT22;1116;51.502;7.414;2023-12-20T06:53:07;8.00;97.70
2220;DHT22;1116;51.502;7.414;2023-12-20T06:55:39;8.10;97.00
2220;DHT22;1116;51.502;7.414;2023-12-20T06:58:10;8.10;96.60
2220;DHT22;1116;51.502;7.414;2023-12-20T07:00:37;8.10;95.00
2220;DHT22;1116;51.502;7.414;2023-12-20T07:03:09;8.10;94.80
2220;DHT22;1116;51.502;7.414;2023-12-20T07:05:37;8.00;93.50
2220;DHT22;1116;51.502;7.414;2023-12-20T07:08:07;8.00;92.70
2220;DHT22;1116;51.502;7.414;2023-12-20T07:10:40;8.00;92.70
2220;DHT22;1116;51.502;7.414;2023-12-20T07:13:10;8.00;91.90
2220;DHT22;1116;51.502;7.414;2023-12-20T07:15:41;8.00;92.00
2220;DHT22;1116;51.502;7.414;2023-12-20T07:18:11;8.10;91.60
2220;DHT22;1116;51.502;7.414;2023-12-20T07:20:42;8.10;90.60
2220;DHT22;1116;51.502;7.414;2023-12-20T07:23:12;8.00;88.70
2220;DHT22;1116;51.502;7.414;2023-12-20T07:25:45;8.10;88.20
2220;DHT22;1116;51.502;7.414;2023-12-20T07:28:15;8.10;87.00
2220;DHT22;1116;51.502;7.414;2023-12-20T07:30:46;8.10;87.60
2220;DHT22;1116;51.502;7.414;2023-12-20T07:33:16;8.00;86.10
2220;DHT22;1116;51.502;7.414;2023-12-20T07:35:46;8.00;84.40
2220;DHT22;1116;51.502;7.414;2023-12-20T07:38:19;8.10;86.60
2220;DHT22;1116;51.502;7.414;2023-12-20T07:40:52;8.00;85.10
2220;DHT22;1116;51.502;7.414;2023-12-20T07:43:22;8.00;82.70
2220;DHT22;1116;51.502;7.414;2023-12-20T07:45:52;8.10;84.50
2220;DHT22;1116;51.502;7.414;2023-12-20T07:48:22;8.10;83.60
2220;DHT22;1116;51.502;7.414;2023-12-20T07:50:53;8.20;83.10
2220;DHT22;1116;51.502;7.414;2023-12-20T07:53:23;8.20;82.80
2220;DHT22;1116;51.502;7.414;2023-12-20T07:55:56;8.20;81.90
2220;DHT22;1116;51.502;7.414;2023-12-20T07:58:26;8.20;81.70
2220;DHT22;1116;51.502;7.414;2023-12-20T08:01:16;8.20;80.30
2220;DHT22;1116;51.502;7.414;2023-12-20T08:03:48;8.10;81.20
2220;DHT22;1116;51.502;7.414;2023-12-20T08:06:19;8.10;79.30
2220;DHT22;1116;51.502;7.414;2023-12-20T08:08:50;8.20;80.60
2220;DHT22;1116;51.502;7.414;2023-12-20T08:11:31;8.30;79.90
2220;DHT22;1116;51.502;7.414;2023-12-20T08:14:01;8.30;80.20
2220;DHT22;1116;51.502;7.414;2023-12-20T08:16:31;8.40;80.10
2220;DHT22;1116;51.502;7.414;2023-12-20T08:19:01;8.40;78.20
2220;DHT22;1116;51.502;7.414;2023-12-20T08:21:31;8.40;77.80
2220;DHT22;1116;51.502;7.414;2023-12-20T08:24:05;8.40;76.90
2220;DHT22;1116;51.502;7.414;2023-12-20T08:26:39;8.50;76.40
2220;DHT22;1116;51.502;7.414;2023-12-20T08:29:09;8.50;76.70
2220;DHT22;1116;51.502;7.414;2023-12-20T08:31:39;8.50;75.80
2220;DHT22;1116;51.502;7.414;2023-12-20T08:34:09;8.60;75.40
2220;DHT22;1116;51.502;7.414;2023-12-20T08:36:42;8.50;75.20
2220;DHT22;1116;51.502;7.414;2023-12-20T08:39:12;8.50;75.20
2220;DHT22;1116;51.502;7.414;2023-12-20T08:41:45;8.50;75.20
2220;DHT22;1116;51.502;7.414;2023-12-20T08:44:15;8.50;75.20
2220;DHT22;1116;51.502;7.414;2023-12-20T08:46:45;8.50;75.20
2220;DHT22;1116;51.502;7.414;2023-12-20T08:49:15;8.50;75.20
2220;DHT22;1116;51.502;7.414;2023-12-20T08:51:46;8.60;74.80
2220;DHT22;1116;51.502;7.414;2023-12-20T08:54:16;8.50;75.20
2220;DHT22;1116;51.502;7.414;2023-12-20T08:56:49;8.60;73.40
2220;DHT22;1116;51.502;7.414;2023-12-20T08:59:19;8.60;73.50
2220;DHT22;1116;51.502;7.414;2023-12-20T09:01:50;8.50;73.60
2220;DHT22;1116;51.502;7.414;2023-12-20T09:04:22;8.50;73.60
2220;DHT22;1116;51.502;7.414;2023-12-20T09:06:52;8.60;73.60
2220;DHT22;1116;51.502;7.414;2023-12-20T09:09:23;8.50;73.50
2220;DHT22;1116;51.502;7.414;2023-12-20T09:11:55;8.60;72.80
2220;DHT22;1116;51.502;7.414;2023-12-20T09:14:25;8.60;72.70
2220;DHT22;1116;51.502;7.414;2023-12-20T09:16:56;8.60;73.20
2220;DHT22;1116;51.502;7.414;2023-12-20T09:19:28;8.60;72.10
2220;DHT22;1116;51.502;7.414;2023-12-20T09:21:58;8.60;72.10
2220;DHT22;1116;51.502;7.414;2023-12-20T09:24:29;8.60;72.40
2220;DHT22;1116;51.502;7.414;2023-12-20T09:27:03;8.60;71.10
2220;DHT22;1116;51.502;7.414;2023-12-20T09:29:33;8.60;71.80
2220;DHT22;1116;51.502;7.414;2023-12-20T09:32:04;8.70;71.00
2220;DHT22;1116;51.502;7.414;2023-12-20T09:34:35;8.80;70.70
2220;DHT22;1116;51.502;7.414;2023-12-20T09:37:05;8.80;70.50
2220;DHT22;1116;51.502;7.414;2023-12-20T09:39:35;8.70;70.40
2220;DHT22;1116;51.502;7.414;2023-12-20T09:42:11;8.70;69.80
2220;DHT22;1116;51.502;7.414;2023-12-20T09:44:44;8.70;69.70
2220;DHT22;1116;51.502;7.414;2023-12-20T09:47:15;8.70;69.00
2220;DHT22;1116;51.502;7.414;2023-12-20T09:49:50;8.70;69.70
2220;DHT22;1116;51.502;7.414;2023-12-20T09:52:22;8.70;69.30
2220;DHT22;1116;51.502;7.414;2023-12-20T09:54:54;8.70;69.30
2220;DHT22;1116;51.502;7.414;2023-12-20T09:57:28;8.70;68.20
2220;DHT22;1116;51.502;7.414;2023-12-20T09:59:58;8.70;68.20
2220;DHT22;1116;51.502;7.414;2023-12-20T10:02:28;8.70;67.80
2220;DHT22;1116;51.502;7.414;2023-12-20T10:05:01;8.80;68.30
2220;DHT22;1116;51.502;7.414;2023-12-20T10:07:32;8.80;67.80
2220;DHT22;1116;51.502;7.414;2023-12-20T10:10:03;8.80;67.40
2220;DHT22;1116;51.502;7.414;2023-12-20T10:12:38;8.80;67.50
2220;DHT22;1116;51.502;7.414;2023-12-20T10:15:10;8.80;67.60
2220;DHT22;1116;51.502;7.414;2023-12-20T10:17:40;8.80;67.40
2220;DHT22;1116;51.502;7.414;2023-12-20T10:20:11;8.90;66.60
2220;DHT22;1116;51.502;7.414;2023-12-20T10:22:42;8.90;66.90
2220;DHT22;1116;51.502;7.414;2023-12-20T10:25:13;8.90;66.90
2220;DHT22;1116;51.502;7.414;2023-12-20T10:27:47;9.00;66.50
2220;DHT22;1116;51.502;7.414;2023-12-20T10:30:18;9.00;65.80
2220;DHT22;1116;51.502;7.414;2023-12-20T10:32:48;8.90;65.70
2220;DHT22;1116;51.502;7.414;2023-12-20T10:35:19;9.00;65.80
2220;DHT22;1116;51.502;7.414;2023-12-20T10:37:50;9.00;66.40
2220;DHT22;1116;51.502;7.414;2023-12-20T10:40:25;9.00;66.00
2220;DHT22;1116;51.502;7.414;2023-12-20T10:43:01;8.90;67.70
2220;DHT22;1116;51.502;7.414;2023-12-20T10:45:32;8.90;67.20
2220;DHT22;1116;51.502;7.414;2023-12-20T10:48:03;8.90;67.50
2220;DHT22;1116;51.502;7.414;2023-12-20T10:50:36;8.90;67.10
2220;DHT22;1116;51.502;7.414;2023-12-20T10:53:07;9.00;67.10
2220;DHT22;1116;51.502;7.414;2023-12-20T10:55:39;9.00;66.80
2220;DHT22;1116;51.502;7.414;2023-12-20T10:58:13;9.00;66.50
2220;DHT22;1116;51.502;7.414;2023-12-20T11:00:45;9.00;65.80
2220;DHT22;1116;51.502;7.414;2023-12-20T11:03:18;9.10;65.80
2220;DHT22;1116;51.502;7.414;2023-12-20T11:05:58;9.20;65.90
2220;DHT22;1116;51.502;7.414;2023-12-20T11:08:33;9.20;65.90
2220;DHT22;1116;51.502;7.414;2023-12-20T11:11:09;9.10;65.80
2220;DHT22;1116;51.502;7.414;2023-12-20T11:13:54;9.10;65.80
2220;DHT22;1116;51.502;7.414;2023-12-20T11:16:26;9.00;65.80
2220;DHT22;1116;51.502;7.414;2023-12-20T11:19:11;8.90;65.70
2220;DHT22;1116;51.502;7.414;2023-12-20T11:21:43;9.00;65.80
2220;DHT22;1116;51.502;7.414;2023-12-20T11:24:16;9.00;65.80
2220;DHT22;1116;51.502;7.414;2023-12-20T11:26:47;9.10;65.80
2220;DHT22;1116;51.502;7.414;2023-12-20T11:29:36;9.10;65.80
2220;DHT22;1116;51.502;7.414;2023-12-20T11:32:27;9.10;66.40
2220;DHT22;1116;51.502;7.414;2023-12-20T11:35:00;9.20;65.70
2220;DHT22;1116;51.502;7.414;2023-12-20T11:37:35;9.20;65.10
2220;DHT22;1116;51.502;7.414;2023-12-20T11:40:07;9.30;65.00
2220;DHT22;1116;51.502;7.414;2023-12-20T11:42:39;9.40;65.00
2220;DHT22;1116;51.502;7.414;2023-12-20T11:45:14;9.40;65.30
2220;DHT22;1116;51.502;7.414;2023-12-20T11:47:47;9.40;66.10
2220;DHT22;1116;51.502;7.414;2023-12-20T11:50:21;9.40;64.70
2220;DHT22;1116;51.502;7.414;2023-12-20T11:52:53;9.40;64.60
2220;DHT22;1116;51.502;7.414;2023-12-20T11:55:24;9.40;64.30
2220;DHT22;1116;51.502;7.414;2023-12-20T11:57:54;9.30;66.00
2220;DHT22;1116;51.502;7.414;2023-12-20T12:00:27;9.20;66.00
2220;DHT22;1116;51.502;7.414;2023-12-20T12:02:58;9.20;65.90
2220;DHT22;1116;51.502;7.414;2023-12-20T12:05:31;9.20;66.30
2220;DHT22;1116;51.502;7.414;2023-12-20T12:08:03;9.20;66.10
2220;DHT22;1116;51.502;7.414;2023-12-20T12:10:35;9.20;65.90
2220;DHT22;1116;51.502;7.414;2023-12-20T12:13:05;9.20;65.10
2220;DHT22;1116;51.502;7.414;2023-12-20T12:15:39;9.10;65.80
2220;DHT22;1116;51.502;7.414;2023-12-20T12:18:10;9.10;65.80
2220;DHT22;1116;51.502;7.414;2023-12-20T12:20:40;9.10;65.80
2220;DHT22;1116;51.502;7.414;2023-12-20T12:23:10;9.00;65.80
2220;DHT22;1116;51.502;7.414;2023-12-20T12:25:41;9.00;65.80
2220;DHT22;1116;51.502;7.414;2023-12-20T12:28:11;8.90;66.20
2220;DHT22;1116;51.502;7.414;2023-12-20T12:30:56;8.80;69.80
2220;DHT22;1116;51.502;7.414;2023-12-20T12:33:27;8.70;73.80
2220;DHT22;1116;51.502;7.414;2023-12-20T12:35:58;8.50;74.60
2220;DHT22;1116;51.502;7.414;2023-12-20T12:38:28;8.40;75.80
2220;DHT22;1116;51.502;7.414;2023-12-20T12:41:00;8.50;74.10
2220;DHT22;1116;51.502;7.414;2023-12-20T12:43:30;8.50;73.80
2220;DHT22;1116;51.502;7.414;2023-12-20T12:46:05;8.50;71.80
2220;DHT22;1116;51.502;7.414;2023-12-20T12:48:35;8.50;73.00
2220;DHT22;1116;51.502;7.414;2023-12-20T12:51:08;8.50;72.10
2220;DHT22;1116;51.502;7.414;2023-12-20T12:53:40;8.60;72.20
2220;DHT22;1116;51.502;7.414;2023-12-20T12:56:13;8.60;71.10
2220;DHT22;1116;51.502;7.414;2023-12-20T12:58:45;8.70;70.90
2220;DHT22;1116;51.502;7.414;2023-12-20T13:01:18;8.70;70.40
2220;DHT22;1116;51.502;7.414;2023-12-20T13:03:48;8.70;70.40
2220;DHT22;1116;51.502;7.414;2023-12-20T13:06:18;8.80;70.00
2220;DHT22;1116;51.502;7.414;2023-12-20T13:08:49;8.90;69.50
2220;DHT22;1116;51.502;7.414;2023-12-20T13:11:19;8.90;68.70
2220;DHT22;1116;51.502;7.414;2023-12-20T13:13:49;9.00;68.80
2220;DHT22;1116;51.502;7.414;2023-12-20T13:16:22;9.00;68.20
2220;DHT22;1116;51.502;7.414;2023-12-20T13:18:52;9.10;67.90
2220;DHT22;1116;51.502;7.414;2023-12-20T13:21:23;9.10;67.30
2220;DHT22;1116;51.502;7.414;2023-12-20T13:23:53;9.10;67.00
2220;DHT22;1116;51.502;7.414;2023-12-20T13:26:23;9.00;66.60
2220;DHT22;1116;51.502;7.414;2023-12-20T13:28:54;9.10;66.70
2220;DHT22;1116;51.502;7.414;2023-12-20T13:31:26;9.00;67.10
2220;DHT22;1116;51.502;7.414;2023-12-20T13:33:57;8.90;66.00
2220;DHT22;1116;51.502;7.414;2023-12-20T13:36:27;9.00;67.00
2220;DHT22;1116;51.502;7.414;2023-12-20T13:38:58;9.10;66.80
2220;DHT22;1116;51.502;7.414;2023-12-20T13:41:29;9.20;66.50
2220;DHT22;1116;51.502;7.414;2023-12-20T13:44:00;9.20;66.60
2220;DHT22;1116;51.502;7.414;2023-12-20T13:46:33;9.10;65.80
2220;DHT22;1116;51.502;7.414;2023-12-20T13:49:04;9.10;65.80
2220;DHT22;1116;51.502;7.414;2023-12-20T13:51:34;9.10;65.80
2220;DHT22;1116;51.502;7.414;2023-12-20T13:54:05;9.10;65.80
2220;DHT22;1116;51.502;7.414;2023-12-20T13:56:38;9.10;65.90
2220;DHT22;1116;51.502;7.414;2023-12-20T13:59:23;9.10;65.90
2220;DHT22;1116;51.502;7.414;2023-12-20T14:01:56;9.10;65.80
2220;DHT22;1116;51.502;7.414;2023-12-20T14:04:28;9.10;65.80
2220;DHT22;1116;51.502;7.414;2023-12-20T14:07:09;8.90;65.70
2220;DHT22;1116;51.502;7.414;2023-12-20T14:09:39;9.00;66.50
2220;DHT22;1116;51.502;7.414;2023-12-20T14:12:13;9.00;66.50
2220;DHT22;1116;51.502;7.414;2023-12-20T14:14:43;9.00;65.80
2220;DHT22;1116;51.502;7.414;2023-12-20T14:17:17;9.00;66.40
2220;DHT22;1116;51.502;7.414;2023-12-20T14:19:47;9.10;65.80
2220;DHT22;1116;51.502;7.414;2023-12-20T14:22:18;9.00;65.70
2220;DHT22;1116;51.502;7.414;2023-12-20T14:24:49;9.00;66.00
2220;DHT22;1116;51.502;7.414;2023-12-20T14:27:19;9.00;66.20
2220;DHT22;1116;51.502;7.414;2023-12-20T14:29:51;9.00;66.30
2220;DHT22;1116;51.502;7.414;2023-12-20T14:32:24;9.00;66.60
2220;DHT22;1116;51.502;7.414;2023-12-20T14:34:55;8.90;65.70
2220;DHT22;1116;51.502;7.414;2023-12-20T14:37:25;8.90;66.30
2220;DHT22;1116;51.502;7.414;2023-12-20T14:39:55;9.00;66.40
2220;DHT22;1116;51.502;7.414;2023-12-20T14:42:26;9.00;65.80
2220;DHT22;1116;51.502;7.414;2023-12-20T14:44:56;9.00;65.80
2220;DHT22;1116;51.502;7.414;2023-12-20T14:47:29;9.00;66.10
2220;DHT22;1116;51.502;7.414;2023-12-20T14:49:59;8.90;66.30
2220;DHT22;1116;51.502;7.414;2023-12-20T14:52:30;8.90;66.40
2220;DHT22;1116;51.502;7.414;2023-12-20T14:55:01;9.00;65.80
2220;DHT22;1116;51.502;7.414;2023-12-20T14:57:32;9.00;66.60
2220;DHT22;1116;51.502;7.414;2023-12-20T15:00:03;9.00;65.80
2220;DHT22;1116;51.502;7.414;2023-12-20T15:02:36;8.90;66.60
2220;DHT22;1116;51.502;7.414;2023-12-20T15:05:07;8.90;66.80
2220;DHT22;1116;51.502;7.414;2023-12-20T15:07:37;8.90;66.90
2220;DHT22;1116;51.502;7.414;2023-12-20T15:10:08;8.90;66.80
2220;DHT22;1116;51.502;7.414;2023-12-20T15:12:39;9.00;67.60
2220;DHT22;1116;51.502;7.414;2023-12-20T15:15:10;9.00;67.00
2220;DHT22;1116;51.502;7.414;2023-12-20T15:17:43;9.00;67.10
2220;DHT22;1116;51.502;7.414;2023-12-20T15:20:14;9.00;66.40
2220;DHT22;1116;51.502;7.414;2023-12-20T15:22:44;9.00;66.30
2220;DHT22;1116;51.502;7.414;2023-12-20T15:25:14;9.10;65.80
2220;DHT22;1116;51.502;7.414;2023-12-20T15:27:49;9.00;65.70
2220;DHT22;1116;51.502;7.414;2023-12-20T15:30:20;9.10;65.90
2220;DHT22;1116;51.502;7.414;2023-12-20T15:32:54;9.00;65.80
2220;DHT22;1116;51.502;7.414;2023-12-20T15:35:24;9.10;65.80
2220;DHT22;1116;51.502;7.414;2023-12-20T15:37:55;9.10;66.60
2220;DHT22;1116;51.502;7.414;2023-12-20T15:40:26;9.00;66.00
2220;DHT22;1116;51.502;7.414;2023-12-20T15:42:56;9.00;66.40
2220;DHT22;1116;51.502;7.414;2023-12-20T15:45:26;9.00;66.50
2220;DHT22;1116;51.502;7.414;2023-12-20T15:47:59;9.00;66.80
2220;DHT22;1116;51.502;7.414;2023-12-20T15:50:30;9.00;66.80
2220;DHT22;1116;51.502;7.414;2023-12-20T15:53:01;9.10;66.70
2220;DHT22;1116;51.502;7.414;2023-12-20T15:55:31;9.10;66.60
2220;DHT22;1116;51.502;7.414;2023-12-20T15:58:01;9.00;66.20
2220;DHT22;1116;51.502;7.414;2023-12-20T16:00:32;9.00;66.60
2220;DHT22;1116;51.502;7.414;2023-12-20T16:03:04;9.00;66.50
2220;DHT22;1116;51.502;7.414;2023-12-20T16:05:50;9.10;66.50
2220;DHT22;1116;51.502;7.414;2023-12-20T16:08:20;9.10;66.10
2220;DHT22;1116;51.502;7.414;2023-12-20T16:10:51;9.00;65.80
2220;DHT22;1116;51.502;7.414;2023-12-20T16:13:21;9.10;66.10
2220;DHT22;1116;51.502;7.414;2023-12-20T16:15:51;9.10;65.80
2220;DHT22;1116;51.502;7.414;2023-12-20T16:18:24;9.10;65.80
2220;DHT22;1116;51.502;7.414;2023-12-20T16:20:55;9.20;65.90
2220;DHT22;1116;51.502;7.414;2023-12-20T16:23:28;9.20;65.90
2220;DHT22;1116;51.502;7.414;2023-12-20T16:25:58;9.20;65.90
2220;DHT22;1116;51.502;7.414;2023-12-20T16:28:28;9.20;65.90
2220;DHT22;1116;51.502;7.414;2023-12-20T16:30:58;9.10;65.90
2220;DHT22;1116;51.502;7.414;2023-12-20T16:33:31;9.20;65.90
2220;DHT22;1116;51.502;7.414;2023-12-20T16:36:01;9.20;65.90
2220;DHT22;1116;51.502;7.414;2023-12-20T16:38:32;9.20;65.30
2220;DHT22;1116;51.502;7.414;2023-12-20T16:41:02;9.20;65.60
2220;DHT22;1116;51.502;7.414;2023-12-20T16:43:32;9.20;66.00
2220;DHT22;1116;51.502;7.414;2023-12-20T16:46:03;9.30;66.10